createdAt,value
2022-10-26T00:00:10.515Z,92.18
2022-10-26T00:01:10.531Z,92.69
2022-10-26T00:02:10.598Z,92.69
2022-10-26T00:03:10.494Z,92.63
2022-10-26T00:04:10.514Z,92.43
2022-10-26T00:05:10.479Z,92.59
2022-10-26T00:06:10.466Z,92.63
2022-10-26T00:07:10.453Z,93.04
2022-10-26T00:08:10.440Z,93.00
2022-10-26T00:09:10.492Z,93.04
2022-10-26T00:10:10.419Z,93.00
2022-10-26T00:11:11.418Z,92.69
2022-10-26T00:12:10.425Z,92.59
2022-10-26T00:13:10.424Z,92.79
2022-10-26T00:14:10.380Z,92.69
2022-10-26T00:15:10.419Z,92.69
2022-10-26T00:16:10.363Z,92.63
2022-10-26T00:17:10.337Z,92.63
2022-10-26T00:18:11.342Z,92.63
2022-10-26T00:19:10.326Z,92.63
2022-10-26T00:20:10.334Z,92.83
2022-10-26T00:21:10.313Z,93.35
2022-10-26T00:22:10.291Z,93.45
2022-10-26T00:23:10.290Z,93.55
2022-10-26T00:24:10.313Z,94.27
2022-10-26T00:25:10.295Z,94.58
2022-10-26T00:26:10.269Z,94.99
2022-10-26T00:27:10.260Z,94.21
2022-10-26T00:28:10.238Z,94.83
2022-10-26T00:29:10.261Z,95.03
2022-10-26T00:30:10.225Z,94.62
2022-10-26T00:31:10.202Z,94.83
2022-10-26T00:32:10.205Z,94.11
2022-10-26T00:33:10.193Z,94.93
2022-10-26T00:34:10.189Z,95.03
2022-10-26T00:35:21.322Z,94.93
2022-10-26T00:36:11.161Z,95.34
2022-10-26T00:37:10.173Z,94.77
2022-10-26T00:38:10.146Z,94.98
2022-10-26T00:39:10.163Z,94.98
2022-10-26T00:40:10.195Z,95.49
2022-10-26T00:41:10.119Z,95.03
2022-10-26T00:42:10.118Z,94.62
2022-10-26T00:43:10.098Z,94.32
2022-10-26T00:44:10.076Z,94.62
2022-10-26T00:45:10.133Z,94.62
2022-10-26T00:46:10.111Z,94.26
2022-10-26T00:47:10.071Z,94.98
2022-10-26T00:48:10.073Z,95.18
2022-10-26T00:49:10.065Z,94.98
2022-10-26T00:50:10.019Z,94.87
2022-10-26T00:51:10.023Z,94.81
2022-10-26T00:52:09.993Z,94.56
2022-10-26T00:53:10.006Z,94.51
2022-10-26T00:54:09.990Z,94.40
2022-10-26T00:55:09.963Z,94.20
2022-10-26T00:56:09.988Z,94.96
2022-10-26T00:57:09.944Z,95.02
2022-10-26T00:58:10.078Z,94.65
2022-10-26T00:59:09.927Z,94.96
2022-10-26T01:00:09.928Z,94.96
2022-10-26T01:01:09.997Z,94.65
2022-10-26T01:02:09.900Z,95.37
2022-10-26T01:03:09.915Z,95.02
2022-10-26T01:04:09.958Z,94.92
2022-10-26T01:05:09.859Z,94.20
2022-10-26T01:06:09.965Z,94.61
2022-10-26T01:07:09.877Z,94.77
2022-10-26T01:08:09.842Z,95.23
2022-10-26T01:09:09.912Z,95.18
2022-10-26T01:10:09.826Z,95.02
2022-10-26T01:11:09.868Z,94.67
2022-10-26T01:12:09.810Z,94.92
2022-10-26T01:13:09.794Z,94.20
2022-10-26T01:14:09.773Z,94.81
2022-10-26T01:15:09.768Z,94.61
2022-10-26T01:16:09.766Z,94.20
2022-10-26T01:17:09.779Z,94.71
2022-10-26T01:18:09.743Z,94.10
2022-10-26T01:19:09.731Z,94.61
2022-10-26T01:20:09.718Z,93.95
2022-10-26T01:21:09.714Z,94.40
2022-10-26T01:22:09.732Z,94.51
2022-10-26T01:23:09.686Z,94.40
2022-10-26T01:24:09.691Z,93.74
2022-10-26T01:25:09.672Z,93.85
2022-10-26T01:26:09.650Z,93.64
2022-10-26T01:27:09.644Z,93.79
2022-10-26T01:28:09.650Z,93.74
2022-10-26T01:29:09.632Z,93.54
2022-10-26T01:30:09.685Z,93.89
2022-10-26T01:31:09.607Z,93.99
2022-10-26T01:32:09.609Z,93.54
2022-10-26T01:33:09.620Z,93.23
2022-10-26T01:34:09.580Z,93.38
2022-10-26T01:35:09.577Z,93.79
2022-10-26T01:36:09.636Z,93.59
2022-10-26T01:37:09.559Z,93.99
2022-10-26T01:38:09.555Z,93.59
2022-10-26T01:39:09.570Z,93.79
2022-10-26T01:40:09.573Z,93.64
2022-10-26T01:41:09.532Z,93.44
2022-10-26T01:42:09.512Z,93.48
2022-10-26T01:43:09.519Z,93.48
2022-10-26T01:44:09.494Z,93.68
2022-10-26T01:45:09.492Z,93.23
2022-10-26T01:46:09.559Z,93.48
2022-10-26T01:47:09.488Z,93.48
2022-10-26T01:48:09.449Z,93.48
2022-10-26T01:49:09.481Z,93.48
2022-10-26T01:50:09.477Z,93.89
2022-10-26T01:51:09.438Z,93.68
2022-10-26T01:52:09.440Z,93.79
2022-10-26T01:53:09.429Z,93.38
2022-10-26T01:54:09.402Z,93.59
2022-10-26T01:55:09.383Z,93.59
2022-10-26T01:56:09.391Z,93.33
2022-10-26T01:57:09.410Z,93.74
2022-10-26T01:58:09.383Z,93.79
2022-10-26T01:59:09.339Z,93.68
2022-10-26T02:00:09.344Z,94.30
2022-10-26T02:01:09.369Z,94.40
2022-10-26T02:02:09.319Z,94.36
2022-10-26T02:03:09.311Z,94.36
2022-10-26T02:04:09.296Z,94.40
2022-10-26T02:05:09.283Z,93.99
2022-10-26T02:06:09.272Z,93.99
2022-10-26T02:07:09.285Z,94.40
2022-10-26T02:08:09.275Z,93.68
2022-10-26T02:09:09.265Z,93.68
2022-10-26T02:10:09.235Z,93.68
2022-10-26T02:11:09.219Z,94.10
2022-10-26T02:12:09.212Z,94.51
2022-10-26T02:13:09.225Z,94.20
2022-10-26T02:14:09.240Z,93.79
2022-10-26T02:15:09.180Z,94.71
2022-10-26T02:16:09.211Z,94.40
2022-10-26T02:17:09.161Z,94.51
2022-10-26T02:18:09.168Z,94.26
2022-10-26T02:19:09.140Z,93.99
2022-10-26T02:20:09.157Z,93.74
2022-10-26T02:21:09.122Z,93.64
2022-10-26T02:22:09.108Z,93.68
2022-10-26T02:23:09.121Z,93.79
2022-10-26T02:24:09.121Z,93.79
2022-10-26T02:25:09.083Z,93.64
2022-10-26T02:26:09.095Z,93.44
2022-10-26T02:27:09.060Z,93.64
2022-10-26T02:28:09.072Z,93.60
2022-10-26T02:29:09.043Z,93.44
2022-10-26T02:30:09.048Z,93.33
2022-10-26T02:31:09.046Z,93.33
2022-10-26T02:32:09.025Z,93.44
2022-10-26T02:33:09.009Z,93.33
2022-10-26T02:34:09.009Z,93.68
2022-10-26T02:35:08.989Z,93.99
2022-10-26T02:36:08.986Z,93.79
2022-10-26T02:37:08.968Z,94.40
2022-10-26T02:38:08.950Z,93.99
2022-10-26T02:39:08.954Z,93.79
2022-10-26T02:40:08.928Z,93.68
2022-10-26T02:41:08.940Z,93.68
2022-10-26T02:42:08.967Z,93.99
2022-10-26T02:43:08.937Z,93.38
2022-10-26T02:44:09.894Z,93.38
2022-10-26T02:45:08.916Z,93.68
2022-10-26T02:46:08.875Z,93.89
2022-10-26T02:47:08.922Z,93.99
2022-10-26T02:48:08.850Z,93.99
2022-10-26T02:49:08.851Z,93.99
2022-10-26T02:50:08.826Z,93.38
2022-10-26T02:51:08.817Z,93.38
2022-10-26T02:52:08.829Z,93.38
2022-10-26T02:53:08.786Z,93.79
2022-10-26T02:54:08.792Z,93.48
2022-10-26T02:55:08.796Z,93.74
2022-10-26T02:56:08.774Z,93.79
2022-10-26T02:57:40.687Z,93.48
2022-10-26T02:58:08.747Z,93.89
2022-10-26T02:59:08.752Z,94.20
2022-10-26T03:00:08.743Z,93.89
2022-10-26T03:01:08.766Z,93.48
2022-10-26T03:02:08.757Z,93.99
2022-10-26T03:03:08.717Z,93.89
2022-10-26T03:04:08.787Z,93.68
2022-10-26T03:05:08.712Z,93.68
2022-10-26T03:06:08.689Z,94.71
2022-10-26T03:07:08.690Z,93.79
2022-10-26T03:08:08.675Z,94.20
2022-10-26T03:09:08.681Z,93.79
2022-10-26T03:10:08.646Z,93.68
2022-10-26T03:11:08.662Z,94.20
2022-10-26T03:12:08.659Z,94.30
2022-10-26T03:13:08.622Z,94.10
2022-10-26T03:14:08.640Z,94.71
2022-10-26T03:15:08.593Z,94.15
2022-10-26T03:16:08.661Z,94.20
2022-10-26T03:17:09.569Z,93.85
2022-10-26T03:18:08.567Z,93.64
2022-10-26T03:19:08.549Z,93.54
2022-10-26T03:20:08.651Z,93.33
2022-10-26T03:21:08.544Z,93.23
2022-10-26T03:22:08.531Z,93.13
2022-10-26T03:23:08.530Z,93.33
2022-10-26T03:24:08.507Z,93.13
2022-10-26T03:26:08.498Z,93.64
2022-10-26T03:27:08.486Z,93.85
2022-10-26T03:28:08.490Z,93.95
2022-10-26T03:29:08.472Z,93.64
2022-10-26T03:30:08.446Z,93.99
2022-10-26T03:31:08.452Z,93.99
2022-10-26T03:32:08.420Z,93.68
2022-10-26T03:33:08.434Z,93.33
2022-10-26T03:34:08.419Z,93.68
2022-10-26T03:35:08.416Z,94.46
2022-10-26T03:36:08.434Z,94.40
2022-10-26T03:37:08.402Z,94.51
2022-10-26T03:38:08.369Z,94.40
2022-10-26T03:39:08.372Z,93.68
2022-10-26T03:40:08.357Z,93.99
2022-10-26T03:41:08.397Z,94.20
2022-10-26T03:42:08.340Z,93.99
2022-10-26T03:43:08.330Z,94.34
2022-10-26T03:44:08.319Z,94.10
2022-10-26T03:45:08.320Z,94.51
2022-10-26T03:46:09.320Z,94.51
2022-10-26T03:47:08.282Z,94.51
2022-10-26T03:48:08.284Z,93.99
2022-10-26T03:49:08.272Z,93.59
2022-10-26T03:50:08.358Z,93.99
2022-10-26T03:51:08.274Z,94.20
2022-10-26T03:52:08.298Z,94.34
2022-10-26T03:53:08.293Z,94.40
2022-10-26T03:54:08.223Z,93.99
2022-10-26T03:55:08.225Z,93.38
2022-10-26T03:56:08.215Z,93.68
2022-10-26T03:57:08.183Z,94.04
2022-10-26T03:58:08.174Z,93.59
2022-10-26T03:59:08.162Z,93.48
2022-10-26T04:00:08.174Z,93.38
2022-10-26T04:01:08.186Z,93.38
2022-10-26T04:02:08.132Z,93.99
2022-10-26T04:03:08.175Z,94.51
2022-10-26T04:04:08.236Z,93.68
2022-10-26T04:05:08.214Z,93.68
2022-10-26T04:06:08.097Z,93.79
2022-10-26T04:07:09.111Z,93.85
2022-10-26T04:08:09.086Z,93.74
2022-10-26T04:09:08.099Z,93.27
2022-10-26T04:10:08.048Z,93.54
2022-10-26T04:11:08.055Z,92.93
2022-10-26T04:12:08.043Z,92.72
2022-10-26T04:13:08.037Z,92.51
2022-10-26T04:14:08.029Z,92.93
2022-10-26T04:15:08.181Z,92.93
2022-10-26T04:16:08.007Z,93.02
2022-10-26T04:17:07.990Z,93.23
2022-10-26T04:18:07.980Z,92.72
2022-10-26T04:19:07.974Z,92.82
2022-10-26T04:20:07.980Z,92.82
2022-10-26T04:21:07.974Z,92.76
2022-10-26T04:22:07.958Z,92.93
2022-10-26T04:23:07.937Z,92.72
2022-10-26T04:24:07.910Z,93.13
2022-10-26T04:25:08.931Z,92.72
2022-10-26T04:26:07.909Z,92.86
2022-10-26T04:27:07.902Z,93.02
2022-10-26T04:28:07.925Z,93.38
2022-10-26T04:29:07.925Z,93.27
2022-10-26T04:30:07.878Z,93.95
2022-10-26T04:31:07.926Z,93.59
2022-10-26T04:32:07.839Z,93.79
2022-10-26T04:33:07.874Z,93.54
2022-10-26T04:34:07.817Z,93.74
2022-10-26T04:35:09.978Z,93.38
2022-10-26T04:36:07.811Z,93.74
2022-10-26T04:37:07.802Z,93.95
2022-10-26T04:38:07.781Z,93.64
2022-10-26T04:39:07.762Z,93.33
2022-10-26T04:40:07.800Z,93.54
2022-10-26T04:41:07.758Z,93.44
2022-10-26T04:42:07.743Z,93.33
2022-10-26T04:43:07.745Z,92.88
2022-10-26T04:44:07.737Z,93.08
2022-10-26T04:45:07.780Z,92.88
2022-10-26T04:46:07.708Z,92.68
2022-10-26T04:47:07.710Z,92.68
2022-10-26T04:48:07.672Z,92.78
2022-10-26T04:49:07.676Z,92.57
2022-10-26T04:50:07.673Z,92.68
2022-10-26T04:51:07.649Z,92.36
2022-10-26T04:52:07.648Z,92.47
2022-10-26T04:53:07.629Z,92.47
2022-10-26T04:54:07.640Z,92.47
2022-10-26T04:55:07.616Z,92.57
2022-10-26T04:56:07.612Z,92.47
2022-10-26T04:57:07.611Z,92.47
2022-10-26T04:58:07.579Z,92.57
2022-10-26T04:59:07.572Z,92.47
2022-10-26T05:00:07.579Z,92.47
2022-10-26T05:01:07.623Z,92.57
2022-10-26T05:02:07.688Z,92.27
2022-10-26T05:03:07.545Z,92.47
2022-10-26T05:04:07.514Z,92.47
2022-10-26T05:05:09.960Z,92.06
2022-10-26T05:06:07.520Z,92.47
2022-10-26T05:07:07.519Z,92.68
2022-10-26T05:08:07.490Z,92.22
2022-10-26T05:09:07.492Z,91.96
2022-10-26T05:10:07.496Z,92.06
2022-10-26T05:11:07.491Z,92.16
2022-10-26T05:12:07.445Z,92.22
2022-10-26T05:13:07.437Z,91.86
2022-10-26T05:14:08.439Z,91.91
2022-10-26T05:15:08.649Z,92.02
2022-10-26T05:16:07.499Z,92.22
2022-10-26T05:17:07.387Z,92.27
2022-10-26T05:18:07.397Z,92.47
2022-10-26T05:19:07.397Z,92.36
2022-10-26T05:20:07.372Z,92.47
2022-10-26T05:21:07.368Z,92.32
2022-10-26T05:22:07.376Z,92.22
2022-10-26T05:23:07.404Z,92.32
2022-10-26T05:24:10.138Z,92.06
2022-10-26T05:25:07.341Z,92.57
2022-10-26T05:26:07.330Z,92.68
2022-10-26T05:27:07.335Z,92.57
2022-10-26T05:28:07.303Z,92.47
2022-10-26T05:29:07.338Z,92.53
2022-10-26T05:31:07.282Z,92.53
2022-10-26T05:32:07.275Z,92.43
2022-10-26T05:33:07.254Z,92.47
2022-10-26T05:34:07.246Z,92.43
2022-10-26T05:35:07.231Z,92.43
2022-10-26T05:36:07.338Z,92.47
2022-10-26T05:37:07.215Z,92.47
2022-10-26T05:38:07.214Z,92.47
2022-10-26T05:39:07.206Z,92.68
2022-10-26T05:40:07.198Z,92.32
2022-10-26T05:41:07.200Z,92.68
2022-10-26T05:42:07.187Z,92.47
2022-10-26T05:43:07.163Z,92.83
2022-10-26T05:44:07.153Z,92.63
2022-10-26T05:45:07.290Z,92.98
2022-10-26T05:46:07.158Z,92.63
2022-10-26T05:47:07.138Z,92.83
2022-10-26T05:48:07.101Z,92.53
2022-10-26T05:49:07.097Z,92.38
2022-10-26T05:50:07.207Z,91.97
2022-10-26T05:51:07.098Z,91.71
2022-10-26T05:52:07.062Z,91.71
2022-10-26T05:53:07.051Z,91.97
2022-10-26T05:54:10.283Z,92.12
2022-10-26T05:56:08.622Z,92.28
2022-10-26T05:57:07.016Z,92.02
2022-10-26T05:58:07.042Z,92.12
2022-10-26T05:59:07.013Z,92.02
2022-10-26T06:00:06.984Z,91.87
2022-10-26T06:01:07.015Z,91.56
2022-10-26T06:02:07.084Z,91.56
2022-10-26T06:03:06.972Z,91.67
2022-10-26T06:04:06.949Z,91.77
2022-10-26T06:05:06.940Z,91.77
2022-10-26T06:06:07.406Z,91.87
2022-10-26T06:07:06.933Z,91.77
2022-10-26T06:08:06.905Z,91.77
2022-10-26T06:09:07.048Z,92.18
2022-10-26T06:10:07.123Z,91.87
2022-10-26T06:11:06.892Z,91.77
2022-10-26T06:12:06.879Z,91.87
2022-10-26T06:13:06.863Z,91.67
2022-10-26T06:14:06.869Z,91.77
2022-10-26T06:15:06.837Z,91.87
2022-10-26T06:16:06.833Z,91.87
2022-10-26T06:17:06.815Z,91.52
2022-10-26T06:18:06.800Z,91.77
2022-10-26T06:19:06.808Z,91.46
2022-10-26T06:20:07.964Z,91.36
2022-10-26T06:21:06.774Z,91.36
2022-10-26T06:22:06.757Z,91.26
2022-10-26T06:23:06.755Z,91.31
2022-10-26T06:24:06.765Z,90.91
2022-10-26T06:25:06.728Z,90.70
2022-10-26T06:26:06.725Z,90.81
2022-10-26T06:27:06.730Z,90.91
2022-10-26T06:28:06.731Z,90.91
2022-10-26T06:29:06.717Z,91.11
2022-10-26T06:30:06.725Z,91.22
2022-10-26T06:31:06.680Z,91.11
2022-10-26T06:32:06.655Z,91.05
2022-10-26T06:33:18.263Z,91.26
2022-10-26T06:34:06.646Z,91.22
2022-10-26T06:35:07.313Z,91.11
2022-10-26T06:36:07.638Z,91.26
2022-10-26T06:37:06.616Z,91.42
2022-10-26T06:38:06.609Z,91.77
2022-10-26T06:39:06.603Z,91.73
2022-10-26T06:40:06.593Z,91.67
2022-10-26T06:41:06.650Z,91.63
2022-10-26T06:42:06.566Z,91.67
2022-10-26T06:43:06.552Z,91.31
2022-10-26T06:44:06.568Z,91.52
2022-10-26T06:45:06.558Z,91.42
2022-10-26T06:46:06.551Z,91.52
2022-10-26T06:47:06.515Z,91.31
2022-10-26T06:48:06.508Z,91.42
2022-10-26T06:49:06.493Z,90.70
2022-10-26T06:50:06.483Z,91.11
2022-10-26T06:51:06.727Z,90.70
2022-10-26T06:52:09.071Z,91.31
2022-10-26T06:53:06.453Z,91.22
2022-10-26T06:54:06.440Z,91.01
2022-10-26T06:55:06.465Z,91.11
2022-10-26T06:56:06.447Z,91.22
2022-10-26T06:57:06.432Z,91.31
2022-10-26T06:58:06.407Z,91.36
2022-10-26T06:59:07.126Z,91.52
2022-10-26T07:00:06.392Z,91.63
2022-10-26T07:01:06.470Z,92.03
2022-10-26T07:02:06.780Z,91.73
2022-10-26T07:03:06.445Z,91.93
2022-10-26T07:04:06.353Z,91.69
2022-10-26T07:05:06.360Z,91.78
2022-10-26T07:06:06.439Z,91.48
2022-10-26T07:07:06.306Z,91.38
2022-10-26T07:08:06.341Z,91.38
2022-10-26T07:09:06.294Z,91.48
2022-10-26T07:10:06.302Z,91.17
2022-10-26T07:11:06.312Z,91.38
2022-10-26T07:12:06.285Z,91.07
2022-10-26T07:13:06.276Z,90.97
2022-10-26T07:14:06.258Z,90.97
2022-10-26T07:15:06.334Z,91.07
2022-10-26T07:16:06.234Z,90.97
2022-10-26T07:17:06.268Z,90.86
2022-10-26T07:18:06.233Z,91.27
2022-10-26T07:19:06.211Z,91.64
2022-10-26T07:20:06.186Z,91.33
2022-10-26T07:21:06.180Z,91.27
2022-10-26T07:22:06.178Z,91.58
2022-10-26T07:23:06.184Z,91.58
2022-10-26T07:24:06.144Z,91.78
2022-10-26T07:25:06.159Z,91.95
2022-10-26T07:26:06.132Z,91.64
2022-10-26T07:27:06.117Z,91.54
2022-10-26T07:28:06.118Z,91.29
2022-10-26T07:29:06.132Z,91.33
2022-10-26T07:30:06.093Z,91.33
2022-10-26T07:31:06.155Z,91.33
2022-10-26T07:32:06.142Z,90.88
2022-10-26T07:33:06.108Z,91.23
2022-10-26T07:34:06.048Z,91.23
2022-10-26T07:35:06.032Z,91.19
2022-10-26T07:36:06.037Z,91.23
2022-10-26T07:37:06.046Z,91.33
2022-10-26T07:38:06.029Z,91.33
2022-10-26T07:39:06.011Z,91.33
2022-10-26T07:40:06.948Z,91.85
2022-10-26T07:41:05.989Z,91.89
2022-10-26T07:42:06.006Z,92.50
2022-10-26T07:43:06.051Z,92.40
2022-10-26T07:44:05.970Z,92.50
2022-10-26T07:45:05.980Z,92.96
2022-10-26T07:46:06.000Z,92.85
2022-10-26T07:47:05.930Z,92.85
2022-10-26T07:48:05.932Z,93.37
2022-10-26T07:49:05.929Z,93.57
2022-10-26T07:50:05.900Z,94.08
2022-10-26T07:51:05.881Z,93.77
2022-10-26T07:52:05.894Z,93.98
2022-10-26T07:53:05.972Z,93.98
2022-10-26T07:54:05.860Z,94.18
2022-10-26T07:55:05.849Z,93.77
2022-10-26T07:56:05.843Z,93.77
2022-10-26T07:58:05.888Z,93.22
2022-10-26T07:59:05.834Z,93.43
2022-10-26T08:00:05.818Z,93.07
2022-10-26T08:01:05.841Z,92.87
2022-10-26T08:02:05.838Z,92.21
2022-10-26T08:03:05.786Z,92.21
2022-10-26T08:04:05.776Z,92.01
2022-10-26T08:05:05.889Z,92.11
2022-10-26T08:06:05.743Z,92.21
2022-10-26T08:07:05.728Z,92.42
2022-10-26T08:08:05.815Z,92.27
2022-10-26T08:09:05.715Z,92.01
2022-10-26T08:10:05.704Z,91.66
2022-10-26T08:11:05.687Z,92.07
2022-10-26T08:12:05.696Z,91.86
2022-10-26T08:13:05.675Z,91.96
2022-10-26T08:14:05.706Z,91.66
2022-10-26T08:15:05.652Z,91.96
2022-10-26T08:16:05.630Z,91.86
2022-10-26T08:17:05.691Z,92.17
2022-10-26T08:18:05.608Z,91.72
2022-10-26T08:19:05.631Z,91.66
2022-10-26T08:20:05.595Z,91.76
2022-10-26T08:21:11.002Z,91.92
2022-10-26T08:22:06.623Z,91.72
2022-10-26T08:23:05.567Z,91.52
2022-10-26T08:24:05.561Z,91.52
2022-10-26T08:25:05.595Z,91.20
2022-10-26T08:26:05.575Z,91.27
2022-10-26T08:27:05.589Z,90.90
2022-10-26T08:28:05.508Z,90.35
2022-10-26T08:29:05.508Z,90.86
2022-10-26T08:30:05.497Z,90.86
2022-10-26T08:31:05.490Z,90.86
2022-10-26T08:32:05.543Z,91.11
2022-10-26T08:33:05.476Z,91.20
2022-10-26T08:34:05.459Z,91.41
2022-10-26T08:35:05.468Z,91.31
2022-10-26T08:36:05.457Z,91.00
2022-10-26T08:37:05.440Z,91.52
2022-10-26T08:38:05.426Z,91.52
2022-10-26T08:39:05.398Z,91.72
2022-10-26T08:40:05.398Z,91.76
2022-10-26T08:41:05.383Z,92.23
2022-10-26T08:42:05.393Z,92.23
2022-10-26T08:43:05.377Z,92.43
2022-10-26T08:44:05.348Z,92.02
2022-10-26T08:45:05.345Z,92.13
2022-10-26T08:46:05.334Z,91.88
2022-10-26T08:47:05.375Z,91.37
2022-10-26T08:48:05.318Z,91.82
2022-10-26T08:49:05.368Z,91.82
2022-10-26T08:50:05.285Z,91.88
2022-10-26T08:51:05.296Z,91.98
2022-10-26T08:52:05.291Z,92.19
2022-10-26T08:53:05.268Z,91.88
2022-10-26T08:54:05.259Z,91.98
2022-10-26T08:55:05.285Z,91.98
2022-10-26T08:56:05.272Z,92.23
2022-10-26T08:57:05.221Z,91.78
2022-10-26T08:58:37.144Z,91.88
2022-10-26T08:59:05.225Z,91.98
2022-10-26T09:00:05.194Z,92.08
2022-10-26T09:01:05.275Z,92.19
2022-10-26T09:02:05.287Z,91.74
2022-10-26T09:03:05.160Z,91.94
2022-10-26T09:04:05.174Z,91.53
2022-10-26T09:05:05.164Z,91.22
2022-10-26T09:06:05.130Z,90.88
2022-10-26T09:07:05.124Z,90.88
2022-10-26T09:08:05.133Z,90.26
2022-10-26T09:09:05.138Z,89.96
2022-10-26T09:10:05.117Z,90.16
2022-10-26T09:11:05.109Z,89.61
2022-10-26T09:12:05.071Z,88.69
2022-10-26T09:13:05.079Z,89.04
2022-10-26T09:14:05.052Z,89.20
2022-10-26T09:15:05.052Z,89.30
2022-10-26T09:16:05.051Z,89.61
2022-10-26T09:17:05.040Z,89.30
2022-10-26T09:18:05.013Z,89.51
2022-10-26T09:19:05.020Z,89.96
2022-10-26T09:20:05.017Z,89.92
2022-10-26T09:21:05.022Z,89.92
2022-10-26T09:22:04.992Z,89.81
2022-10-26T09:23:04.981Z,90.12
2022-10-26T09:24:04.966Z,89.30
2022-10-26T09:25:07.652Z,88.45
2022-10-26T09:26:04.940Z,88.28
2022-10-26T09:28:04.921Z,88.55
2022-10-26T09:29:04.972Z,88.55
2022-10-26T09:30:04.911Z,88.40
2022-10-26T09:31:04.891Z,88.45
2022-10-26T09:32:04.900Z,88.04
2022-10-26T09:33:07.416Z,87.73
2022-10-26T09:34:04.883Z,88.34
2022-10-26T09:35:04.852Z,88.20
2022-10-26T09:36:04.831Z,88.51
2022-10-26T09:37:04.817Z,87.90
2022-10-26T09:38:04.820Z,88.51
2022-10-26T09:39:04.827Z,88.51
2022-10-26T09:40:04.796Z,88.61
2022-10-26T09:41:04.784Z,87.90
2022-10-26T09:42:04.790Z,87.90
2022-10-26T09:43:04.769Z,88.10
2022-10-26T09:44:04.775Z,88.16
2022-10-26T09:45:04.757Z,89.12
2022-10-26T09:46:04.733Z,88.16
2022-10-26T09:47:04.744Z,88.06
2022-10-26T09:48:06.660Z,87.29
2022-10-26T09:49:04.730Z,87.49
2022-10-26T09:50:04.791Z,87.55
2022-10-26T09:51:05.055Z,86.43
2022-10-26T09:52:04.737Z,87.04
2022-10-26T09:53:04.686Z,86.74
2022-10-26T09:54:04.658Z,86.90
2022-10-26T09:55:04.648Z,86.80
2022-10-26T09:56:04.650Z,86.65
2022-10-26T09:57:04.634Z,86.55
2022-10-26T09:58:04.644Z,86.25
2022-10-26T09:59:04.610Z,85.70
2022-10-26T10:00:04.622Z,85.13
2022-10-26T10:01:04.633Z,85.09
2022-10-26T10:02:04.600Z,85.09
2022-10-26T10:03:04.628Z,85.29
2022-10-26T10:04:04.574Z,85.15
2022-10-26T10:05:04.601Z,85.15
2022-10-26T10:06:04.567Z,85.05
2022-10-26T10:07:04.548Z,85.46
2022-10-26T10:08:04.534Z,85.31
2022-10-26T10:09:04.512Z,84.20
2022-10-26T10:10:04.527Z,83.54
2022-10-26T10:11:04.501Z,83.85
2022-10-26T10:12:04.532Z,82.78
2022-10-26T10:13:04.485Z,83.24
2022-10-26T10:14:04.465Z,83.24
2022-10-26T10:15:04.550Z,83.20
2022-10-26T10:16:04.458Z,82.19
2022-10-26T10:17:04.546Z,83.00
2022-10-26T10:18:04.433Z,82.23
2022-10-26T10:19:04.408Z,83.14
2022-10-26T10:20:04.432Z,83.14
2022-10-26T10:21:04.401Z,83.24
2022-10-26T10:22:04.472Z,83.34
2022-10-26T10:23:04.377Z,83.45
2022-10-26T10:24:04.367Z,83.24
2022-10-26T10:25:04.361Z,82.64
2022-10-26T10:26:04.342Z,83.34
2022-10-26T10:27:04.394Z,83.40
2022-10-26T10:28:04.379Z,83.51
2022-10-26T10:29:04.303Z,83.91
2022-10-26T10:30:04.507Z,83.20
2022-10-26T10:31:04.331Z,82.39
2022-10-26T10:32:04.294Z,82.09
2022-10-26T10:33:04.296Z,82.86
2022-10-26T10:34:04.297Z,82.05
2022-10-26T10:35:04.316Z,83.26
2022-10-26T10:36:04.260Z,82.96
2022-10-26T10:37:04.234Z,82.25
2022-10-26T10:38:04.242Z,81.95
2022-10-26T10:39:04.217Z,81.85
2022-10-26T10:40:04.222Z,82.66
2022-10-26T10:41:04.217Z,81.74
2022-10-26T10:42:04.200Z,82.31
2022-10-26T10:43:04.206Z,81.81
2022-10-26T10:44:04.194Z,81.57
2022-10-26T10:45:04.156Z,81.63
2022-10-26T10:46:04.186Z,81.69
2022-10-26T10:47:04.137Z,80.68
2022-10-26T10:48:04.214Z,79.46
2022-10-26T10:49:04.122Z,80.64
2022-10-26T10:50:04.105Z,79.19
2022-10-26T10:51:04.089Z,78.68
2022-10-26T10:52:04.084Z,79.69
2022-10-26T10:53:04.083Z,78.85
2022-10-26T10:54:04.071Z,77.73
2022-10-26T10:55:04.048Z,77.60
2022-10-26T10:56:05.441Z,76.89
2022-10-26T10:57:04.060Z,77.09
2022-10-26T10:58:04.023Z,77.66
2022-10-26T10:59:04.164Z,77.15
2022-10-26T11:00:04.015Z,77.56
2022-10-26T11:01:04.033Z,77.70
2022-10-26T11:02:04.149Z,77.70
2022-10-26T11:03:03.972Z,77.70
2022-10-26T11:04:04.061Z,77.90
2022-10-26T11:05:03.948Z,77.50
2022-10-26T11:06:03.967Z,77.56
2022-10-26T11:07:03.924Z,77.73
2022-10-26T11:08:03.925Z,77.53
2022-10-26T11:09:03.901Z,77.32
2022-10-26T11:10:03.905Z,77.08
2022-10-26T11:11:03.936Z,77.79
2022-10-26T11:12:03.882Z,77.45
2022-10-26T11:13:03.907Z,77.55
2022-10-26T11:14:03.865Z,77.35
2022-10-26T11:15:03.902Z,77.04
2022-10-26T11:16:03.841Z,75.90
2022-10-26T11:17:03.886Z,76.37
2022-10-26T11:18:03.818Z,75.56
2022-10-26T11:19:03.819Z,75.93
2022-10-26T11:20:03.797Z,75.43
2022-10-26T11:21:03.798Z,74.55
2022-10-26T11:22:03.825Z,75.06
2022-10-26T11:24:03.764Z,75.50
2022-10-26T11:25:03.753Z,75.34
2022-10-26T11:26:03.737Z,75.94
2022-10-26T11:27:03.734Z,75.74
2022-10-26T11:28:03.727Z,75.63
2022-10-26T11:29:03.793Z,75.90
2022-10-26T11:30:03.688Z,76.51
2022-10-26T11:31:03.766Z,75.70
2022-10-26T11:32:03.693Z,76.81
2022-10-26T11:33:03.683Z,75.50
2022-10-26T11:34:03.655Z,75.60
2022-10-26T11:35:03.648Z,76.61
2022-10-26T11:36:03.666Z,75.30
2022-10-26T11:37:03.637Z,75.50
2022-10-26T11:38:03.616Z,76.51
2022-10-26T11:39:06.396Z,75.87
2022-10-26T11:40:04.653Z,75.53
2022-10-26T11:41:03.604Z,75.33
2022-10-26T11:42:03.581Z,75.59
2022-10-26T11:43:03.565Z,75.02
2022-10-26T11:44:03.546Z,75.53
2022-10-26T11:45:03.528Z,75.59
2022-10-26T11:46:03.529Z,73.61
2022-10-26T11:47:03.536Z,74.02
2022-10-26T11:48:03.500Z,75.13
2022-10-26T11:49:03.487Z,75.02
2022-10-26T11:50:03.510Z,74.22
2022-10-26T11:51:03.487Z,73.92
2022-10-26T11:52:03.530Z,75.02
2022-10-26T11:53:03.453Z,75.73
2022-10-26T11:54:03.444Z,75.63
2022-10-26T11:55:03.431Z,74.93
2022-10-26T11:56:03.429Z,75.29
2022-10-26T11:57:03.434Z,75.29
2022-10-26T11:58:03.416Z,74.89
2022-10-26T11:59:03.411Z,75.15
2022-10-26T12:00:03.385Z,75.12
2022-10-26T12:01:03.387Z,74.15
2022-10-26T12:02:03.390Z,73.85
2022-10-26T12:03:03.389Z,73.55
2022-10-26T12:04:03.342Z,73.75
2022-10-26T12:05:03.331Z,73.81
2022-10-26T12:06:03.316Z,73.24
2022-10-26T12:07:03.355Z,74.11
2022-10-26T12:08:03.316Z,74.55
2022-10-26T12:09:03.292Z,74.41
2022-10-26T12:10:03.392Z,73.61
2022-10-26T12:11:03.309Z,73.00
2022-10-26T12:12:03.261Z,73.21
2022-10-26T12:13:03.266Z,73.81
2022-10-26T12:14:03.235Z,73.31
2022-10-26T12:15:03.239Z,74.41
2022-10-26T12:16:04.325Z,73.78
2022-10-26T12:17:04.275Z,73.11
2022-10-26T12:18:03.192Z,73.31
2022-10-26T12:19:03.204Z,73.00
2022-10-26T12:20:03.263Z,74.38
2022-10-26T12:21:03.185Z,73.78
2022-10-26T12:22:03.157Z,73.38
2022-10-26T12:23:03.144Z,73.68
2022-10-26T12:24:03.144Z,73.07
2022-10-26T12:25:03.179Z,72.67
2022-10-26T12:26:03.189Z,72.77
2022-10-26T12:27:03.106Z,72.64
2022-10-26T12:28:03.105Z,73.04
2022-10-26T12:29:03.109Z,73.04
2022-10-26T12:30:03.084Z,72.44
2022-10-26T12:31:03.069Z,73.14
2022-10-26T12:32:03.124Z,72.74
2022-10-26T12:33:03.046Z,73.44
2022-10-26T12:34:03.075Z,72.84
2022-10-26T12:35:03.045Z,73.24
2022-10-26T12:36:03.085Z,73.04
2022-10-26T12:37:03.038Z,73.04
2022-10-26T12:38:03.023Z,73.84
2022-10-26T12:39:03.080Z,73.24
2022-10-26T12:40:02.995Z,72.60
2022-10-26T12:41:03.054Z,73.37
2022-10-26T12:42:02.962Z,71.77
2022-10-26T12:43:02.954Z,71.56
2022-10-26T12:44:04.874Z,71.30
2022-10-26T12:45:02.940Z,71.26
2022-10-26T12:46:02.937Z,71.77
2022-10-26T12:47:02.937Z,71.86
2022-10-26T12:48:10.674Z,71.03
2022-10-26T12:49:04.944Z,70.36
2022-10-26T12:50:02.955Z,70.46
2022-10-26T12:51:02.874Z,71.06
2022-10-26T12:53:05.010Z,71.77
2022-10-26T12:54:02.844Z,71.06
2022-10-26T12:55:02.926Z,70.89
2022-10-26T12:56:02.833Z,70.73
2022-10-26T12:57:02.819Z,71.73
2022-10-26T12:58:02.827Z,72.97
2022-10-26T12:59:04.870Z,72.37